sensor_id;sensor_type;location;lat;lon;timestamp;temperature;humidity
1778;DHT22;886;50.082;8.222;2022-09-01T00:00:10;18.40;95.20
1778;DHT22;886;50.082;8.222;2022-09-01T00:02:40;18.20;95.20
1778;DHT22;886;50.082;8.222;2022-09-01T00:05:12;18.20;95.30
1778;DHT22;886;50.082;8.222;2022-09-01T00:07:39;18.20;95.60
1778;DHT22;886;50.082;8.222;2022-09-01T00:10:07;18.20;95.50
1778;DHT22;886;50.082;8.222;2022-09-01T00:12:40;18.10;95.30
1778;DHT22;886;50.082;8.222;2022-09-01T00:15:09;18.10;95.60
1778;DHT22;886;50.082;8.222;2022-09-01T00:17:37;18.10;95.60
1778;DHT22;886;50.082;8.222;2022-09-01T00:20:05;18.00;95.40
1778;DHT22;886;50.082;8.222;2022-09-01T00:22:36;18.10;95.20
1778;DHT22;886;50.082;8.222;2022-09-01T00:25:07;18.00;95.30
1778;DHT22;886;50.082;8.222;2022-09-01T00:27:35;18.00;95.20
1778;DHT22;886;50.082;8.222;2022-09-01T00:30:07;17.60;96.00
1778;DHT22;886;50.082;8.222;2022-09-01T00:32:35;17.60;96.20
1778;DHT22;886;50.082;8.222;2022-09-01T00:35:03;17.70;96.10
1778;DHT22;886;50.082;8.222;2022-09-01T00:37:34;17.70;95.90
1778;DHT22;886;50.082;8.222;2022-09-01T00:40:01;17.70;95.90
1778;DHT22;886;50.082;8.222;2022-09-01T00:42:29;17.70;96.20
1778;DHT22;886;50.082;8.222;2022-09-01T00:44:56;17.50;96.60
1778;DHT22;886;50.082;8.222;2022-09-01T00:47:28;17.70;96.30
1778;DHT22;886;50.082;8.222;2022-09-01T00:49:55;17.60;95.80
1778;DHT22;886;50.082;8.222;2022-09-01T00:52:30;17.60;95.70
1778;DHT22;886;50.082;8.222;2022-09-01T00:55:03;17.70;95.40
1778;DHT22;886;50.082;8.222;2022-09-01T00:57:37;17.60;95.80
1778;DHT22;886;50.082;8.222;2022-09-01T01:00:09;17.70;95.70
1778;DHT22;886;50.082;8.222;2022-09-01T01:02:40;17.70;95.70
1778;DHT22;886;50.082;8.222;2022-09-01T01:05:08;17.70;95.60
1778;DHT22;886;50.082;8.222;2022-09-01T01:07:44;17.80;95.40
1778;DHT22;886;50.082;8.222;2022-09-01T01:10:15;17.80;95.30
1778;DHT22;886;50.082;8.222;2022-09-01T01:12:45;17.60;95.50
1778;DHT22;886;50.082;8.222;2022-09-01T01:15:19;17.70;95.40
1778;DHT22;886;50.082;8.222;2022-09-01T01:17:48;17.70;95.50
1778;DHT22;886;50.082;8.222;2022-09-01T01:20:16;17.70;95.80
1778;DHT22;886;50.082;8.222;2022-09-01T01:23:09;17.70;95.40
1778;DHT22;886;50.082;8.222;2022-09-01T01:25:45;17.60;95.60
1778;DHT22;886;50.082;8.222;2022-09-01T01:28:17;17.60;95.50
1778;DHT22;886;50.082;8.222;2022-09-01T01:30:48;17.50;95.50
1778;DHT22;886;50.082;8.222;2022-09-01T01:33:19;17.50;96.10
1778;DHT22;886;50.082;8.222;2022-09-01T01:35:50;17.50;96.00
1778;DHT22;886;50.082;8.222;2022-09-01T01:38:24;17.50;95.90
1778;DHT22;886;50.082;8.222;2022-09-01T01:40:58;17.40;96.30
1778;DHT22;886;50.082;8.222;2022-09-01T01:43:27;17.30;96.40
1778;DHT22;886;50.082;8.222;2022-09-01T01:45:56;17.40;95.70
1778;DHT22;886;50.082;8.222;2022-09-01T01:48:35;17.40;96.10
1778;DHT22;886;50.082;8.222;2022-09-01T01:51:11;17.30;96.10
1778;DHT22;886;50.082;8.222;2022-09-01T01:53:45;17.40;96.10
1778;DHT22;886;50.082;8.222;2022-09-01T01:56:15;17.40;96.30
1778;DHT22;886;50.082;8.222;2022-09-01T01:58:44;17.40;96.20
1778;DHT22;886;50.082;8.222;2022-09-01T02:01:11;17.40;96.10
1778;DHT22;886;50.082;8.222;2022-09-01T02:03:39;17.30;96.30
1778;DHT22;886;50.082;8.222;2022-09-01T02:06:10;17.40;96.10
1778;DHT22;886;50.082;8.222;2022-09-01T02:08:38;17.40;96.20
1778;DHT22;886;50.082;8.222;2022-09-01T02:11:07;17.50;96.10
1778;DHT22;886;50.082;8.222;2022-09-01T02:13:35;17.50;95.90
1778;DHT22;886;50.082;8.222;2022-09-01T02:16:05;17.50;95.90
1778;DHT22;886;50.082;8.222;2022-09-01T02:18:39;17.60;95.70
1778;DHT22;886;50.082;8.222;2022-09-01T02:21:11;17.50;95.90
1778;DHT22;886;50.082;8.222;2022-09-01T02:23:45;17.30;96.10
1778;DHT22;886;50.082;8.222;2022-09-01T02:26:16;17.30;96.30
1778;DHT22;886;50.082;8.222;2022-09-01T02:28:46;17.30;96.30
1778;DHT22;886;50.082;8.222;2022-09-01T02:31:22;17.30;96.10
1778;DHT22;886;50.082;8.222;2022-09-01T02:33:49;17.30;96.30
1778;DHT22;886;50.082;8.222;2022-09-01T02:36:17;17.40;96.10
1778;DHT22;886;50.082;8.222;2022-09-01T02:38:46;17.20;96.50
1778;DHT22;886;50.082;8.222;2022-09-01T02:41:21;17.10;96.70
1778;DHT22;886;50.082;8.222;2022-09-01T02:43:52;17.10;96.80
1778;DHT22;886;50.082;8.222;2022-09-01T02:46:20;17.00;96.90
1778;DHT22;886;50.082;8.222;2022-09-01T02:48:51;17.10;96.70
1778;DHT22;886;50.082;8.222;2022-09-01T02:51:20;17.10;96.60
1778;DHT22;886;50.082;8.222;2022-09-01T02:53:51;17.10;96.80
1778;DHT22;886;50.082;8.222;2022-09-01T02:56:21;17.00;97.00
1778;DHT22;886;50.082;8.222;2022-09-01T02:58:53;16.90;97.20
1778;DHT22;886;50.082;8.222;2022-09-01T03:01:22;17.00;97.20
1778;DHT22;886;50.082;8.222;2022-09-01T03:03:56;16.90;97.30
1778;DHT22;886;50.082;8.222;2022-09-01T03:06:24;16.70;97.50
1778;DHT22;886;50.082;8.222;2022-09-01T03:08:54;16.70;97.70
1778;DHT22;886;50.082;8.222;2022-09-01T03:11:26;16.60;98.10
1778;DHT22;886;50.082;8.222;2022-09-01T03:13:56;16.70;98.40
1778;DHT22;886;50.082;8.222;2022-09-01T03:16:23;16.80;98.00
1778;DHT22;886;50.082;8.222;2022-09-01T03:18:51;16.90;97.90
1778;DHT22;886;50.082;8.222;2022-09-01T03:21:19;17.00;97.80
1778;DHT22;886;50.082;8.222;2022-09-01T03:23:50;16.80;97.50
1778;DHT22;886;50.082;8.222;2022-09-01T03:26:32;16.70;97.90
1778;DHT22;886;50.082;8.222;2022-09-01T03:29:01;16.80;97.90
1778;DHT22;886;50.082;8.222;2022-09-01T03:31:29;16.70;98.00
1778;DHT22;886;50.082;8.222;2022-09-01T03:33:57;16.80;98.10
1778;DHT22;886;50.082;8.222;2022-09-01T03:36:26;16.70;98.10
1778;DHT22;886;50.082;8.222;2022-09-01T03:38:54;16.70;98.20
1778;DHT22;886;50.082;8.222;2022-09-01T03:41:25;16.70;98.10
1778;DHT22;886;50.082;8.222;2022-09-01T03:43:57;16.70;98.30
1778;DHT22;886;50.082;8.222;2022-09-01T03:46:27;16.80;98.20
1778;DHT22;886;50.082;8.222;2022-09-01T03:49:03;16.80;98.10
1778;DHT22;886;50.082;8.222;2022-09-01T03:51:33;16.70;98.10
1778;DHT22;886;50.082;8.222;2022-09-01T03:54:00;16.80;98.00
1778;DHT22;886;50.082;8.222;2022-09-01T03:56:28;16.80;98.20
1778;DHT22;886;50.082;8.222;2022-09-01T03:58:57;16.50;98.50
1778;DHT22;886;50.082;8.222;2022-09-01T04:01:28;16.50;98.50
1778;DHT22;886;50.082;8.222;2022-09-01T04:03:58;16.40;98.90
1778;DHT22;886;50.082;8.222;2022-09-01T04:06:26;16.40;99.20
1778;DHT22;886;50.082;8.222;2022-09-01T04:08:56;16.50;99.10
1778;DHT22;886;50.082;8.222;2022-09-01T04:11:28;16.50;99.20
1778;DHT22;886;50.082;8.222;2022-09-01T04:13:57;16.70;98.90
1778;DHT22;886;50.082;8.222;2022-09-01T04:16:27;16.70;98.50
1778;DHT22;886;50.082;8.222;2022-09-01T04:19:16;16.70;98.20
1778;DHT22;886;50.082;8.222;2022-09-01T04:21:52;16.40;98.90
1778;DHT22;886;50.082;8.222;2022-09-01T04:24:22;16.40;99.20
1778;DHT22;886;50.082;8.222;2022-09-01T04:26:51;16.20;99.40
1778;DHT22;886;50.082;8.222;2022-09-01T04:29:20;16.40;99.40
1778;DHT22;886;50.082;8.222;2022-09-01T04:31:54;16.40;98.80
1778;DHT22;886;50.082;8.222;2022-09-01T04:34:34;16.30;99.30
1778;DHT22;886;50.082;8.222;2022-09-01T04:37:07;16.40;99.10
1778;DHT22;886;50.082;8.222;2022-09-01T04:39:38;16.60;98.70
1778;DHT22;886;50.082;8.222;2022-09-01T04:42:06;16.50;98.60
1778;DHT22;886;50.082;8.222;2022-09-01T04:44:35;16.30;99.00
1778;DHT22;886;50.082;8.222;2022-09-01T04:47:10;16.40;99.40
1778;DHT22;886;50.082;8.222;2022-09-01T04:49:40;16.50;99.20
1778;DHT22;886;50.082;8.222;2022-09-01T04:52:09;16.60;98.70
1778;DHT22;886;50.082;8.222;2022-09-01T04:54:39;16.60;98.80
1778;DHT22;886;50.082;8.222;2022-09-01T04:57:06;16.60;98.70
1778;DHT22;886;50.082;8.222;2022-09-01T04:59:37;16.60;98.90
1778;DHT22;886;50.082;8.222;2022-09-01T05:02:04;16.40;98.90
1778;DHT22;886;50.082;8.222;2022-09-01T05:04:36;16.40;99.00
1778;DHT22;886;50.082;8.222;2022-09-01T05:07:10;16.50;98.70
1778;DHT22;886;50.082;8.222;2022-09-01T05:09:39;16.50;98.60
1778;DHT22;886;50.082;8.222;2022-09-01T05:12:07;16.70;98.40
1778;DHT22;886;50.082;8.222;2022-09-01T05:14:44;16.60;98.30
1778;DHT22;886;50.082;8.222;2022-09-01T05:17:14;16.50;98.90
1778;DHT22;886;50.082;8.222;2022-09-01T05:19:51;16.50;98.90
1778;DHT22;886;50.082;8.222;2022-09-01T05:22:19;16.60;98.70
1778;DHT22;886;50.082;8.222;2022-09-01T05:24:53;16.60;98.80
1778;DHT22;886;50.082;8.222;2022-09-01T05:27:21;16.70;98.80
1778;DHT22;886;50.082;8.222;2022-09-01T05:29:48;16.80;98.50
1778;DHT22;886;50.082;8.222;2022-09-01T05:32:18;16.80;98.40
1778;DHT22;886;50.082;8.222;2022-09-01T05:34:48;16.70;98.60
1778;DHT22;886;50.082;8.222;2022-09-01T05:37:24;16.70;99.10
1778;DHT22;886;50.082;8.222;2022-09-01T05:39:57;16.60;99.40
1778;DHT22;886;50.082;8.222;2022-09-01T05:42:26;16.70;99.20
1778;DHT22;886;50.082;8.222;2022-09-01T05:44:55;16.80;99.20
1778;DHT22;886;50.082;8.222;2022-09-01T05:47:23;16.90;98.40
1778;DHT22;886;50.082;8.222;2022-09-01T05:49:53;17.00;98.40
1778;DHT22;886;50.082;8.222;2022-09-01T05:52:20;17.10;98.20
1778;DHT22;886;50.082;8.222;2022-09-01T05:54:51;17.20;98.00
1778;DHT22;886;50.082;8.222;2022-09-01T05:57:19;17.40;97.60
1778;DHT22;886;50.082;8.222;2022-09-01T06:00:01;17.50;97.10
1778;DHT22;886;50.082;8.222;2022-09-01T06:02:37;17.60;96.90
1778;DHT22;886;50.082;8.222;2022-09-01T06:05:08;17.70;96.90
1778;DHT22;886;50.082;8.222;2022-09-01T06:07:36;17.70;96.50
1778;DHT22;886;50.082;8.222;2022-09-01T06:10:09;17.80;96.20
1778;DHT22;886;50.082;8.222;2022-09-01T06:12:38;17.80;96.00
1778;DHT22;886;50.082;8.222;2022-09-01T06:15:07;17.90;95.90
1778;DHT22;886;50.082;8.222;2022-09-01T06:17:41;17.80;95.80
1778;DHT22;886;50.082;8.222;2022-09-01T06:20:13;17.80;96.10
1778;DHT22;886;50.082;8.222;2022-09-01T06:22:43;17.70;96.60
1778;DHT22;886;50.082;8.222;2022-09-01T06:25:11;17.70;96.50
1778;DHT22;886;50.082;8.222;2022-09-01T06:27:38;17.70;96.50
1778;DHT22;886;50.082;8.222;2022-09-01T06:30:09;17.60;96.70
1778;DHT22;886;50.082;8.222;2022-09-01T06:32:50;17.60;97.00
1778;DHT22;886;50.082;8.222;2022-09-01T06:35:20;17.70;97.10
1778;DHT22;886;50.082;8.222;2022-09-01T06:37:50;17.70;97.40
1778;DHT22;886;50.082;8.222;2022-09-01T06:40:18;17.70;97.50
1778;DHT22;886;50.082;8.222;2022-09-01T06:42:50;17.80;96.20
1778;DHT22;886;50.082;8.222;2022-09-01T06:45:20;18.00;95.80
1778;DHT22;886;50.082;8.222;2022-09-01T06:47:49;18.10;95.10
1778;DHT22;886;50.082;8.222;2022-09-01T06:50:27;18.20;94.50
1778;DHT22;886;50.082;8.222;2022-09-01T06:53:18;18.30;94.20
1778;DHT22;886;50.082;8.222;2022-09-01T06:56:05;18.50;93.70
1778;DHT22;886;50.082;8.222;2022-09-01T06:58:35;18.60;93.60
1778;DHT22;886;50.082;8.222;2022-09-01T07:01:08;18.60;93.50
1778;DHT22;886;50.082;8.222;2022-09-01T07:03:41;18.60;93.30
1778;DHT22;886;50.082;8.222;2022-09-01T07:06:11;18.70;93.10
1778;DHT22;886;50.082;8.222;2022-09-01T07:08:59;18.70;93.10
1778;DHT22;886;50.082;8.222;2022-09-01T07:11:47;18.80;93.10
1778;DHT22;886;50.082;8.222;2022-09-01T07:14:34;18.80;92.80
1778;DHT22;886;50.082;8.222;2022-09-01T07:17:24;18.90;92.60
1778;DHT22;886;50.082;8.222;2022-09-01T07:19:52;18.90;92.40
1778;DHT22;886;50.082;8.222;2022-09-01T07:22:24;19.00;92.40
1778;DHT22;886;50.082;8.222;2022-09-01T07:25:14;19.00;92.20
1778;DHT22;886;50.082;8.222;2022-09-01T07:27:44;19.00;92.10
1778;DHT22;886;50.082;8.222;2022-09-01T07:30:21;19.10;92.10
1778;DHT22;886;50.082;8.222;2022-09-01T07:32:50;19.10;92.00
1778;DHT22;886;50.082;8.222;2022-09-01T07:35:22;19.10;92.00
1778;DHT22;886;50.082;8.222;2022-09-01T07:38:00;19.20;92.00
1778;DHT22;886;50.082;8.222;2022-09-01T07:40:50;19.20;91.70
1778;DHT22;886;50.082;8.222;2022-09-01T07:43:40;19.30;91.40
1778;DHT22;886;50.082;8.222;2022-09-01T07:46:11;19.40;91.40
1778;DHT22;886;50.082;8.222;2022-09-01T07:48:59;19.50;91.30
1778;DHT22;886;50.082;8.222;2022-09-01T07:51:47;19.50;91.40
1778;DHT22;886;50.082;8.222;2022-09-01T07:54:18;19.50;91.30
1778;DHT22;886;50.082;8.222;2022-09-01T07:56:46;19.50;91.30
1778;DHT22;886;50.082;8.222;2022-09-01T07:59:14;19.50;91.40
1778;DHT22;886;50.082;8.222;2022-09-01T08:01:44;19.50;91.40
1778;DHT22;886;50.082;8.222;2022-09-01T08:04:13;19.50;91.50
1778;DHT22;886;50.082;8.222;2022-09-01T08:06:40;19.60;91.60
1778;DHT22;886;50.082;8.222;2022-09-01T08:09:10;19.60;91.30
1778;DHT22;886;50.082;8.222;2022-09-01T08:11:59;19.70;91.20
1778;DHT22;886;50.082;8.222;2022-09-01T08:14:28;19.70;91.00
1778;DHT22;886;50.082;8.222;2022-09-01T08:17:01;19.80;91.10
1778;DHT22;886;50.082;8.222;2022-09-01T08:19:48;19.80;91.10
1778;DHT22;886;50.082;8.222;2022-09-01T08:22:16;19.80;91.00
1778;DHT22;886;50.082;8.222;2022-09-01T08:24:43;19.80;91.20
1778;DHT22;886;50.082;8.222;2022-09-01T08:27:11;19.80;91.10
1778;DHT22;886;50.082;8.222;2022-09-01T08:29:39;19.80;91.40
1778;DHT22;886;50.082;8.222;2022-09-01T08:32:07;19.80;91.20
1778;DHT22;886;50.082;8.222;2022-09-01T08:34:37;19.80;90.90
1778;DHT22;886;50.082;8.222;2022-09-01T08:37:05;19.90;90.80
1778;DHT22;886;50.082;8.222;2022-09-01T08:39:33;19.90;90.90
1778;DHT22;886;50.082;8.222;2022-09-01T08:42:07;19.90;90.90
1778;DHT22;886;50.082;8.222;2022-09-01T08:44:48;20.00;90.70
1778;DHT22;886;50.082;8.222;2022-09-01T08:47:20;20.10;90.70
1778;DHT22;886;50.082;8.222;2022-09-01T08:50:08;20.10;90.90
1778;DHT22;886;50.082;8.222;2022-09-01T08:52:41;20.20;90.80
1778;DHT22;886;50.082;8.222;2022-09-01T08:55:15;20.30;90.20
1778;DHT22;886;50.082;8.222;2022-09-01T08:57:49;20.40;90.10
1778;DHT22;886;50.082;8.222;2022-09-01T09:00:26;20.50;90.00
1778;DHT22;886;50.082;8.222;2022-09-01T09:03:04;20.60;89.10
1778;DHT22;886;50.082;8.222;2022-09-01T09:05:42;20.60;88.60
1778;DHT22;886;50.082;8.222;2022-09-01T09:08:30;20.70;88.50
1778;DHT22;886;50.082;8.222;2022-09-01T09:11:27;20.70;88.40
1778;DHT22;886;50.082;8.222;2022-09-01T09:14:27;20.70;88.60
1778;DHT22;886;50.082;8.222;2022-09-01T09:17:03;20.70;88.60
1778;DHT22;886;50.082;8.222;2022-09-01T09:19:34;20.70;88.30
1778;DHT22;886;50.082;8.222;2022-09-01T09:22:05;20.80;88.10
1778;DHT22;886;50.082;8.222;2022-09-01T09:24:44;20.90;88.10
1778;DHT22;886;50.082;8.222;2022-09-01T09:27:20;20.90;87.50
1778;DHT22;886;50.082;8.222;2022-09-01T09:29:54;21.00;88.30
1778;DHT22;886;50.082;8.222;2022-09-01T09:32:24;21.20;87.40
1778;DHT22;886;50.082;8.222;2022-09-01T09:35:34;21.30;86.60
1778;DHT22;886;50.082;8.222;2022-09-01T09:38:16;21.40;85.90
1778;DHT22;886;50.082;8.222;2022-09-01T09:40:59;21.60;85.20
1778;DHT22;886;50.082;8.222;2022-09-01T09:43:51;21.60;84.70
1778;DHT22;886;50.082;8.222;2022-09-01T09:46:34;21.60;84.50
1778;DHT22;886;50.082;8.222;2022-09-01T09:49:12;21.60;85.30
1778;DHT22;886;50.082;8.222;2022-09-01T09:52:14;21.50;84.50
1778;DHT22;886;50.082;8.222;2022-09-01T09:54:59;21.50;84.30
1778;DHT22;886;50.082;8.222;2022-09-01T09:57:38;21.50;84.90
1778;DHT22;886;50.082;8.222;2022-09-01T10:00:17;21.60;85.00
1778;DHT22;886;50.082;8.222;2022-09-01T10:02:54;21.70;84.30
1778;DHT22;886;50.082;8.222;2022-09-01T10:05:36;21.80;84.40
1778;DHT22;886;50.082;8.222;2022-09-01T10:08:08;21.80;84.50
1778;DHT22;886;50.082;8.222;2022-09-01T10:10:40;21.80;82.80
1778;DHT22;886;50.082;8.222;2022-09-01T10:13:11;21.80;82.60
1778;DHT22;886;50.082;8.222;2022-09-01T10:15:42;21.80;82.70
1778;DHT22;886;50.082;8.222;2022-09-01T10:18:20;21.90;83.30
1778;DHT22;886;50.082;8.222;2022-09-01T10:20:57;22.10;82.90
1778;DHT22;886;50.082;8.222;2022-09-01T10:23:28;22.30;82.00
1778;DHT22;886;50.082;8.222;2022-09-01T10:26:01;22.40;82.10
1778;DHT22;886;50.082;8.222;2022-09-01T10:28:39;22.40;82.30
1778;DHT22;886;50.082;8.222;2022-09-01T10:31:17;22.60;80.30
1778;DHT22;886;50.082;8.222;2022-09-01T10:33:46;22.70;80.10
1778;DHT22;886;50.082;8.222;2022-09-01T10:36:16;22.70;80.30
1778;DHT22;886;50.082;8.222;2022-09-01T10:38:49;22.60;79.70
1778;DHT22;886;50.082;8.222;2022-09-01T10:41:51;22.60;78.50
1778;DHT22;886;50.082;8.222;2022-09-01T10:44:27;22.70;79.40
1778;DHT22;886;50.082;8.222;2022-09-01T10:47:04;22.70;77.30
1778;DHT22;886;50.082;8.222;2022-09-01T10:50:00;22.70;77.40
1778;DHT22;886;50.082;8.222;2022-09-01T10:53:02;22.70;77.50
1778;DHT22;886;50.082;8.222;2022-09-01T10:55:38;22.70;78.20
1778;DHT22;886;50.082;8.222;2022-09-01T10:58:38;22.80;77.80
1778;DHT22;886;50.082;8.222;2022-09-01T11:02:03;22.80;76.50
1778;DHT22;886;50.082;8.222;2022-09-01T11:05:16;22.80;77.20
1778;DHT22;886;50.082;8.222;2022-09-01T11:07:50;22.90;76.60
1778;DHT22;886;50.082;8.222;2022-09-01T11:10:48;23.00;76.40
1778;DHT22;886;50.082;8.222;2022-09-01T11:13:35;22.90;75.90
1778;DHT22;886;50.082;8.222;2022-09-01T11:16:31;23.00;76.20
1778;DHT22;886;50.082;8.222;2022-09-01T11:19:38;23.00;75.50
1778;DHT22;886;50.082;8.222;2022-09-01T11:22:19;23.00;75.60
1778;DHT22;886;50.082;8.222;2022-09-01T11:31:29;23.00;75.00
1778;DHT22;886;50.082;8.222;2022-09-01T11:34:12;23.00;73.80
1778;DHT22;886;50.082;8.222;2022-09-01T11:39:39;22.90;74.10
1778;DHT22;886;50.082;8.222;2022-09-01T11:42:19;22.90;74.30
1778;DHT22;886;50.082;8.222;2022-09-01T11:44:52;22.90;74.40
1778;DHT22;886;50.082;8.222;2022-09-01T11:47:25;22.90;74.40
1778;DHT22;886;50.082;8.222;2022-09-01T11:49:58;22.90;74.70
1778;DHT22;886;50.082;8.222;2022-09-01T11:52:30;23.00;74.50
1778;DHT22;886;50.082;8.222;2022-09-01T11:55:04;23.10;74.20
1778;DHT22;886;50.082;8.222;2022-09-01T11:57:35;23.10;74.10
1778;DHT22;886;50.082;8.222;2022-09-01T12:00:08;23.10;74.10
1778;DHT22;886;50.082;8.222;2022-09-01T12:02:45;23.00;74.00
1778;DHT22;886;50.082;8.222;2022-09-01T12:05:27;23.00;73.40
1778;DHT22;886;50.082;8.222;2022-09-01T12:07:56;23.10;73.70
1778;DHT22;886;50.082;8.222;2022-09-01T12:10:30;23.20;73.90
1778;DHT22;886;50.082;8.222;2022-09-01T12:13:03;23.30;73.40
1778;DHT22;886;50.082;8.222;2022-09-01T12:15:32;23.30;73.20
1778;DHT22;886;50.082;8.222;2022-09-01T12:18:12;23.40;73.00
1778;DHT22;886;50.082;8.222;2022-09-01T12:20:40;23.40;71.90
1778;DHT22;886;50.082;8.222;2022-09-01T12:23:23;23.50;71.50
1778;DHT22;886;50.082;8.222;2022-09-01T12:25:55;23.50;72.60
1778;DHT22;886;50.082;8.222;2022-09-01T12:28:25;23.60;71.90
1778;DHT22;886;50.082;8.222;2022-09-01T12:30:57;23.70;70.70
1778;DHT22;886;50.082;8.222;2022-09-01T12:33:27;23.70;70.10
1778;DHT22;886;50.082;8.222;2022-09-01T12:36:13;23.60;70.40
1778;DHT22;886;50.082;8.222;2022-09-01T12:38:46;23.60;70.90
1778;DHT22;886;50.082;8.222;2022-09-01T12:41:25;23.70;71.00
1778;DHT22;886;50.082;8.222;2022-09-01T12:44:26;23.80;69.80
1778;DHT22;886;50.082;8.222;2022-09-01T12:46:57;24.00;70.00
1778;DHT22;886;50.082;8.222;2022-09-01T12:49:35;24.10;69.70
1778;DHT22;886;50.082;8.222;2022-09-01T12:52:22;24.20;68.80
1778;DHT22;886;50.082;8.222;2022-09-01T12:54:53;24.20;68.70
1778;DHT22;886;50.082;8.222;2022-09-01T12:57:44;24.10;68.70
1778;DHT22;886;50.082;8.222;2022-09-01T13:00:19;24.00;68.80
1778;DHT22;886;50.082;8.222;2022-09-01T13:02:50;24.00;68.60
1778;DHT22;886;50.082;8.222;2022-09-01T13:05:35;24.00;68.10
1778;DHT22;886;50.082;8.222;2022-09-01T13:08:13;24.10;69.10
1778;DHT22;886;50.082;8.222;2022-09-01T13:10:52;24.10;68.00
1778;DHT22;886;50.082;8.222;2022-09-01T13:13:23;24.10;67.50
1778;DHT22;886;50.082;8.222;2022-09-01T13:15:53;24.10;66.80
1778;DHT22;886;50.082;8.222;2022-09-01T13:18:23;24.10;67.70
1778;DHT22;886;50.082;8.222;2022-09-01T13:20:51;24.10;66.80
1778;DHT22;886;50.082;8.222;2022-09-01T13:23:22;24.10;66.80
1778;DHT22;886;50.082;8.222;2022-09-01T13:25:49;24.10;67.00
1778;DHT22;886;50.082;8.222;2022-09-01T13:28:22;24.10;66.60
1778;DHT22;886;50.082;8.222;2022-09-01T13:30:57;24.10;67.60
1778;DHT22;886;50.082;8.222;2022-09-01T13:33:45;24.10;67.80
1778;DHT22;886;50.082;8.222;2022-09-01T13:36:32;24.20;67.60
1778;DHT22;886;50.082;8.222;2022-09-01T13:39:23;24.30;67.40
1778;DHT22;886;50.082;8.222;2022-09-01T13:41:50;24.30;67.10
1778;DHT22;886;50.082;8.222;2022-09-01T13:44:19;24.30;66.70
1778;DHT22;886;50.082;8.222;2022-09-01T13:46:46;24.30;66.60
1778;DHT22;886;50.082;8.222;2022-09-01T13:49:39;24.20;66.60
1778;DHT22;886;50.082;8.222;2022-09-01T13:52:09;24.10;66.90
1778;DHT22;886;50.082;8.222;2022-09-01T13:54:36;24.00;67.20
1778;DHT22;886;50.082;8.222;2022-09-01T13:57:03;24.00;67.50
1778;DHT22;886;50.082;8.222;2022-09-01T13:59:32;23.90;67.60
1778;DHT22;886;50.082;8.222;2022-09-01T14:01:59;23.90;66.90
1778;DHT22;886;50.082;8.222;2022-09-01T14:04:27;23.90;66.70
1778;DHT22;886;50.082;8.222;2022-09-01T14:06:54;23.90;66.60
1778;DHT22;886;50.082;8.222;2022-09-01T14:09:25;23.90;66.80
1778;DHT22;886;50.082;8.222;2022-09-01T14:11:52;23.90;66.40
1778;DHT22;886;50.082;8.222;2022-09-01T14:14:22;24.00;66.40
1778;DHT22;886;50.082;8.222;2022-09-01T14:16:51;24.00;66.10
1778;DHT22;886;50.082;8.222;2022-09-01T14:19:19;24.00;66.20
1778;DHT22;886;50.082;8.222;2022-09-01T14:21:49;24.10;65.20
1778;DHT22;886;50.082;8.222;2022-09-01T14:24:19;24.10;65.30
1778;DHT22;886;50.082;8.222;2022-09-01T14:26:50;24.10;64.90
1778;DHT22;886;50.082;8.222;2022-09-01T14:29:17;24.10;64.90
1778;DHT22;886;50.082;8.222;2022-09-01T14:31:44;24.10;65.00
1778;DHT22;886;50.082;8.222;2022-09-01T14:34:13;24.10;65.00
1778;DHT22;886;50.082;8.222;2022-09-01T14:36:47;24.10;64.70
1778;DHT22;886;50.082;8.222;2022-09-01T14:39:18;24.10;64.70
1778;DHT22;886;50.082;8.222;2022-09-01T14:41:48;24.20;64.30
1778;DHT22;886;50.082;8.222;2022-09-01T14:44:16;24.20;64.70
1778;DHT22;886;50.082;8.222;2022-09-01T14:46:43;24.10;64.90
1778;DHT22;886;50.082;8.222;2022-09-01T14:49:13;24.10;64.80
1778;DHT22;886;50.082;8.222;2022-09-01T14:51:50;24.10;64.90
1778;DHT22;886;50.082;8.222;2022-09-01T14:54:41;24.10;64.60
1778;DHT22;886;50.082;8.222;2022-09-01T14:57:09;24.10;64.80
1778;DHT22;886;50.082;8.222;2022-09-01T14:59:56;24.30;64.40
1778;DHT22;886;50.082;8.222;2022-09-01T15:02:24;24.40;64.40
1778;DHT22;886;50.082;8.222;2022-09-01T15:04:55;24.40;64.00
1778;DHT22;886;50.082;8.222;2022-09-01T15:07:22;24.40;63.50
1778;DHT22;886;50.082;8.222;2022-09-01T15:09:50;24.50;63.60
1778;DHT22;886;50.082;8.222;2022-09-01T15:12:17;24.50;63.20
1778;DHT22;886;50.082;8.222;2022-09-01T15:14:45;24.50;63.50
1778;DHT22;886;50.082;8.222;2022-09-01T15:17:12;24.50;63.30
1778;DHT22;886;50.082;8.222;2022-09-01T15:19:39;24.40;63.80
1778;DHT22;886;50.082;8.222;2022-09-01T15:22:16;24.40;62.50
1778;DHT22;886;50.082;8.222;2022-09-01T15:24:43;24.40;62.50
1778;DHT22;886;50.082;8.222;2022-09-01T15:27:12;24.30;61.90
1778;DHT22;886;50.082;8.222;2022-09-01T15:29:42;24.40;62.20
1778;DHT22;886;50.082;8.222;2022-09-01T15:32:21;24.40;62.00
1778;DHT22;886;50.082;8.222;2022-09-01T15:34:54;24.50;62.00
1778;DHT22;886;50.082;8.222;2022-09-01T15:37:22;24.40;62.00
1778;DHT22;886;50.082;8.222;2022-09-01T15:39:50;24.40;62.00
1778;DHT22;886;50.082;8.222;2022-09-01T15:42:20;24.30;62.00
1778;DHT22;886;50.082;8.222;2022-09-01T15:44:47;24.30;61.90
1778;DHT22;886;50.082;8.222;2022-09-01T15:47:15;24.30;61.40
1778;DHT22;886;50.082;8.222;2022-09-01T15:49:45;24.30;61.50
1778;DHT22;886;50.082;8.222;2022-09-01T15:52:12;24.30;61.40
1778;DHT22;886;50.082;8.222;2022-09-01T15:54:43;24.30;62.10
1778;DHT22;886;50.082;8.222;2022-09-01T15:57:10;24.30;61.30
1778;DHT22;886;50.082;8.222;2022-09-01T15:59:37;24.30;61.50
1778;DHT22;886;50.082;8.222;2022-09-01T16:02:06;24.30;61.30
1778;DHT22;886;50.082;8.222;2022-09-01T16:04:33;24.30;61.30
1778;DHT22;886;50.082;8.222;2022-09-01T16:07:03;24.20;61.40
1778;DHT22;886;50.082;8.222;2022-09-01T16:09:34;24.30;61.30
1778;DHT22;886;50.082;8.222;2022-09-01T16:12:06;24.20;61.40
1778;DHT22;886;50.082;8.222;2022-09-01T16:14:33;24.30;61.30
1778;DHT22;886;50.082;8.222;2022-09-01T16:17:04;24.30;61.10
1778;DHT22;886;50.082;8.222;2022-09-01T16:19:40;24.30;61.10
1778;DHT22;886;50.082;8.222;2022-09-01T16:22:20;24.30;61.00
1778;DHT22;886;50.082;8.222;2022-09-01T16:24:51;24.30;61.30
1778;DHT22;886;50.082;8.222;2022-09-01T16:27:30;24.20;61.50
1778;DHT22;886;50.082;8.222;2022-09-01T16:30:02;24.20;61.40
1778;DHT22;886;50.082;8.222;2022-09-01T16:32:33;24.20;60.90
1778;DHT22;886;50.082;8.222;2022-09-01T16:35:01;24.20;60.40
1778;DHT22;886;50.082;8.222;2022-09-01T16:37:38;24.20;60.50
1778;DHT22;886;50.082;8.222;2022-09-01T16:40:17;24.10;60.80
1778;DHT22;886;50.082;8.222;2022-09-01T16:42:57;24.10;60.70
1778;DHT22;886;50.082;8.222;2022-09-01T16:45:39;24.10;60.90
1778;DHT22;886;50.082;8.222;2022-09-01T16:48:17;24.10;60.50
1778;DHT22;886;50.082;8.222;2022-09-01T16:50:50;24.10;60.20
1778;DHT22;886;50.082;8.222;2022-09-01T16:53:42;24.10;60.00
1778;DHT22;886;50.082;8.222;2022-09-01T16:56:20;24.10;59.60
1778;DHT22;886;50.082;8.222;2022-09-01T16:58:55;24.10;58.90
1778;DHT22;886;50.082;8.222;2022-09-01T17:01:36;24.10;58.80
1778;DHT22;886;50.082;8.222;2022-09-01T17:04:20;24.10;58.80
1778;DHT22;886;50.082;8.222;2022-09-01T17:06:56;24.10;58.80
1778;DHT22;886;50.082;8.222;2022-09-01T17:09:30;24.00;58.60